createdAt,value
2022-11-19T00:02:05.909Z,-8.04
2022-11-19T00:04:33.948Z,-7.96
2022-11-19T00:07:01.835Z,-7.97
2022-11-19T00:09:29.837Z,-8.08
2022-11-19T00:12:16.434Z,-7.88
2022-11-19T00:14:47.358Z,-7.93
2022-11-19T00:17:15.541Z,-8.01
2022-11-19T00:19:43.303Z,-7.99
2022-11-19T00:22:11.461Z,-8.00
2022-11-19T00:24:42.526Z,-7.87
2022-11-19T00:27:10.346Z,-7.95
2022-11-19T00:29:38.141Z,-7.90
2022-11-19T00:32:06.390Z,-7.95
2022-11-19T00:34:34.168Z,-7.74
2022-11-19T00:37:01.983Z,-7.79
2022-11-19T00:39:30.145Z,-7.75
2022-11-19T00:41:57.875Z,-7.78
2022-11-19T00:44:25.724Z,-7.66
2022-11-19T00:46:57.141Z,-7.71
2022-11-19T00:49:25.029Z,-7.65
2022-11-19T00:51:53.977Z,-7.94
2022-11-19T00:54:21.940Z,-7.83
2022-11-19T00:56:49.737Z,-7.76
2022-11-19T00:59:18.109Z,-7.91
2022-11-19T01:01:46.002Z,-7.74
2022-11-19T01:04:16.797Z,-7.59
2022-11-19T01:06:45.049Z,-7.58
2022-11-19T01:09:16.058Z,-7.51
2022-11-19T01:11:43.939Z,-7.42
2022-11-19T01:14:12.174Z,-7.33
2022-11-19T01:16:41.402Z,-7.23
2022-11-19T01:19:11.157Z,-7.18
2022-11-19T01:21:39.322Z,-7.18
2022-11-19T01:24:07.507Z,-7.14
2022-11-19T01:26:35.373Z,-7.12
2022-11-19T01:29:03.565Z,-7.05
2022-11-19T01:31:31.434Z,-7.02
2022-11-19T01:34:00.130Z,-6.95
2022-11-19T01:36:31.718Z,-6.91
2022-11-19T01:38:59.663Z,-6.91
2022-11-19T01:41:33.400Z,-6.89
2022-11-19T01:44:07.875Z,-6.83
2022-11-19T01:46:38.735Z,-6.78
2022-11-19T01:49:13.416Z,-6.74
2022-11-19T01:52:03.383Z,-6.76
2022-11-19T01:54:41.413Z,-6.76
2022-11-19T01:57:15.523Z,-6.76
2022-11-19T01:59:47.357Z,-6.77
2022-11-19T02:02:15.830Z,-6.72
2022-11-19T02:04:47.831Z,-6.70
2022-11-19T02:07:16.471Z,-6.63
2022-11-19T02:09:45.363Z,-6.64
2022-11-19T02:12:25.226Z,-6.62
2022-11-19T02:15:11.327Z,-6.63
2022-11-19T02:18:05.758Z,-6.61
2022-11-19T02:20:44.269Z,-6.62
2022-11-19T02:23:43.311Z,-6.56
2022-11-19T02:26:50.040Z,-6.55
2022-11-19T02:29:29.915Z,-6.60
2022-11-19T02:32:18.611Z,-6.58
2022-11-19T02:35:06.848Z,-6.56
2022-11-19T02:37:56.313Z,-6.47
2022-11-19T02:40:34.354Z,-6.43
2022-11-19T02:43:36.547Z,-6.41
2022-11-19T02:46:14.076Z,-6.39
2022-11-19T02:48:52.935Z,-6.41
2022-11-19T02:51:23.761Z,-6.35
2022-11-19T02:53:51.927Z,-6.43
2022-11-19T02:56:51.839Z,-6.34
2022-11-19T03:00:07.482Z,-6.35
2022-11-19T03:03:01.027Z,-6.35
2022-11-19T03:05:34.050Z,-6.37
2022-11-19T03:08:01.962Z,-6.22
2022-11-19T03:10:42.915Z,-6.24
2022-11-19T03:13:40.289Z,-6.34
2022-11-19T03:16:35.794Z,-6.26
2022-11-19T03:19:20.031Z,-6.24
2022-11-19T03:21:56.756Z,-6.18
2022-11-19T03:25:05.829Z,-6.20
2022-11-19T03:27:47.853Z,-6.24
2022-11-19T03:30:18.084Z,-6.21
2022-11-19T03:33:29.771Z,-6.14
2022-11-19T03:36:04.956Z,-6.21
2022-11-19T03:38:37.068Z,-6.15
2022-11-19T03:41:07.011Z,-6.14
2022-11-19T03:43:40.050Z,-6.19
2022-11-19T03:46:13.671Z,-6.14
2022-11-19T03:48:46.186Z,-6.22
2022-11-19T03:51:20.145Z,-6.18
2022-11-19T03:53:49.448Z,-6.27
2022-11-19T03:56:22.273Z,-6.19
2022-11-19T03:58:50.552Z,-6.27
2022-11-19T04:01:18.494Z,-6.21
2022-11-19T04:04:06.854Z,-6.33
2022-11-19T04:06:34.766Z,-6.34
2022-11-19T04:09:02.863Z,-6.34
2022-11-19T04:11:30.673Z,-6.42
2022-11-19T04:13:58.547Z,-6.47
2022-11-19T04:16:30.283Z,-6.50
2022-11-19T04:18:58.054Z,-6.53
2022-11-19T04:21:29.560Z,-6.56
2022-11-19T04:23:57.390Z,-6.55
2022-11-19T04:26:25.230Z,-6.38
2022-11-19T04:28:53.643Z,-6.42
2022-11-19T04:31:21.574Z,-6.56
2022-11-19T04:33:49.358Z,-6.79
2022-11-19T04:36:17.548Z,-6.92
2022-11-19T04:38:45.351Z,-6.66
2022-11-19T04:41:13.381Z,-6.50
2022-11-19T04:43:41.579Z,-6.43
2022-11-19T04:46:09.335Z,-6.45
2022-11-19T04:48:37.233Z,-6.48
2022-11-19T04:51:08.879Z,-6.50
2022-11-19T04:53:36.769Z,-6.53
2022-11-19T04:56:04.872Z,-6.52
2022-11-19T04:58:36.812Z,-6.53
2022-11-19T05:01:05.012Z,-6.52
2022-11-19T05:03:33.612Z,-6.50
2022-11-19T05:06:01.468Z,-6.61
2022-11-19T05:08:29.414Z,-6.51
2022-11-19T05:10:57.670Z,-6.70
2022-11-19T05:13:25.547Z,-6.43
2022-11-19T05:15:53.342Z,-6.53
2022-11-19T05:18:21.518Z,-6.29
2022-11-19T05:20:52.595Z,-6.24
2022-11-19T05:23:20.877Z,-6.62
2022-11-19T05:25:49.005Z,-6.77
2022-11-19T05:28:16.808Z,-6.74
2022-11-19T05:30:44.718Z,-6.57
2022-11-19T05:33:12.819Z,-6.64
2022-11-19T05:35:40.602Z,-6.67
2022-11-19T05:38:08.754Z,-6.62
2022-11-19T05:40:37.033Z,-6.59
2022-11-19T05:43:08.105Z,-6.53
2022-11-19T05:45:36.418Z,-6.51
2022-11-19T05:48:04.903Z,-6.37
2022-11-19T05:50:32.743Z,-6.30
2022-11-19T05:53:06.086Z,-6.20
2022-11-19T05:55:34.057Z,-6.16
2022-11-19T05:58:01.871Z,-6.01
2022-11-19T06:00:30.214Z,-5.95
2022-11-19T06:02:58.468Z,-5.84
2022-11-19T06:05:26.196Z,-5.81
2022-11-19T06:07:53.875Z,-5.79
2022-11-19T06:10:21.985Z,-5.87
2022-11-19T06:12:49.779Z,-6.00
2022-11-19T06:15:17.868Z,-6.02
2022-11-19T06:17:45.933Z,-6.00
2022-11-19T06:20:13.659Z,-5.98
2022-11-19T06:22:41.443Z,-5.92
2022-11-19T06:25:09.865Z,-5.85
2022-11-19T06:27:37.709Z,-5.70
2022-11-19T06:30:06.878Z,-5.57
2022-11-19T06:32:35.074Z,-5.36
2022-11-19T06:35:02.857Z,-5.21
2022-11-19T06:37:30.788Z,-5.10
2022-11-19T06:39:58.968Z,-4.92
2022-11-19T06:42:39.428Z,-4.86
2022-11-19T06:45:13.085Z,-4.77
2022-11-19T06:47:42.116Z,-4.70
2022-11-19T06:50:11.137Z,-4.60
2022-11-19T06:52:39.064Z,-4.48
2022-11-19T06:55:10.112Z,-4.46
2022-11-19T06:57:39.710Z,-4.43
2022-11-19T07:00:08.065Z,-4.42
2022-11-19T07:02:35.785Z,-4.35
2022-11-19T07:05:04.756Z,-4.22
2022-11-19T07:07:32.656Z,-4.09
2022-11-19T07:10:00.822Z,-3.92
2022-11-19T07:12:34.074Z,-3.79
2022-11-19T07:15:04.495Z,-3.70
2022-11-19T07:17:33.217Z,-3.65
2022-11-19T07:20:01.093Z,-3.62
2022-11-19T07:22:31.142Z,-3.56
2022-11-19T07:24:59.498Z,-3.55
2022-11-19T07:27:27.336Z,-3.54
2022-11-19T07:29:55.146Z,-3.51
2022-11-19T07:32:27.157Z,-3.34
2022-11-19T07:34:58.049Z,-3.29
2022-11-19T07:37:29.464Z,-3.36
2022-11-19T07:39:57.197Z,-3.18
2022-11-19T07:42:46.790Z,-3.28
2022-11-19T07:45:15.876Z,-3.29
2022-11-19T07:47:43.648Z,-3.16
2022-11-19T07:50:12.016Z,-3.18
2022-11-19T07:52:40.416Z,-3.17
2022-11-19T07:55:08.809Z,-3.09
2022-11-19T07:57:39.642Z,-3.12
2022-11-19T08:00:08.471Z,-2.94
2022-11-19T08:02:40.277Z,-2.97
2022-11-19T08:05:08.810Z,-2.86
2022-11-19T08:07:39.633Z,-2.88
2022-11-19T08:10:08.283Z,-2.93
2022-11-19T08:12:36.816Z,-2.82
2022-11-19T08:15:04.878Z,-2.87
2022-11-19T08:17:51.479Z,-2.94
2022-11-19T08:20:19.824Z,-2.97
2022-11-19T08:22:47.518Z,-2.98
2022-11-19T08:25:15.393Z,-2.94
2022-11-19T08:27:43.837Z,-2.94
2022-11-19T08:30:11.828Z,-2.86
2022-11-19T08:32:42.849Z,-2.92
2022-11-19T08:35:11.061Z,-2.86
2022-11-19T08:37:38.820Z,-2.73
2022-11-19T08:40:07.236Z,-2.75
2022-11-19T08:42:53.629Z,-2.68
2022-11-19T08:45:22.715Z,-2.36
2022-11-19T08:47:50.860Z,-2.42
2022-11-19T08:50:19.072Z,-2.51
2022-11-19T08:52:46.981Z,-2.50
2022-11-19T08:55:15.187Z,-2.40
2022-11-19T08:57:42.978Z,-2.40
2022-11-19T09:00:11.480Z,-2.34
2022-11-19T09:02:39.718Z,-2.21
2022-11-19T09:05:11.882Z,-2.11
2022-11-19T09:07:45.983Z,-2.10
2022-11-19T09:10:13.867Z,-2.02
2022-11-19T09:12:45.062Z,-1.91
2022-11-19T09:15:13.436Z,-1.82
2022-11-19T09:17:46.949Z,-1.77
2022-11-19T09:20:19.069Z,-1.60
2022-11-19T09:22:46.995Z,-1.39
2022-11-19T09:25:15.437Z,-1.63
2022-11-19T09:27:43.311Z,-1.53
2022-11-19T09:30:11.408Z,-1.34
2022-11-19T09:32:39.838Z,-1.35
2022-11-19T09:35:08.005Z,-1.51
2022-11-19T09:37:38.712Z,-1.60
2022-11-19T09:40:08.682Z,-1.73
2022-11-19T09:42:57.906Z,-1.50
2022-11-19T09:45:30.383Z,-1.31
2022-11-19T09:48:13.664Z,-1.48
2022-11-19T09:50:53.594Z,-1.53
2022-11-19T09:53:24.692Z,-1.52
2022-11-19T09:55:54.579Z,-1.38
2022-11-19T09:58:38.266Z,-1.24
2022-11-19T10:01:06.958Z,-1.63
2022-11-19T10:03:35.138Z,-1.87
2022-11-19T10:06:12.035Z,-1.63
2022-11-19T10:08:55.399Z,-1.63
2022-11-19T10:11:44.421Z,-1.48
2022-11-19T10:14:49.402Z,-1.77
2022-11-19T10:17:26.016Z,-1.63
2022-11-19T10:20:12.517Z,-1.49
2022-11-19T10:22:57.719Z,-1.49
2022-11-19T10:25:38.575Z,-1.28
2022-11-19T10:28:19.516Z,-1.57
2022-11-19T10:30:55.658Z,-1.25
2022-11-19T10:33:35.822Z,-1.53
2022-11-19T10:36:14.688Z,-1.37
2022-11-19T10:39:01.291Z,-1.34
2022-11-19T10:41:43.257Z,-1.58
2022-11-19T10:44:40.672Z,-1.44
2022-11-19T10:47:22.647Z,-1.75
2022-11-19T10:49:54.797Z,-1.21
2022-11-19T10:52:38.342Z,-1.26
2022-11-19T10:58:19.158Z,-1.07
2022-11-19T11:00:47.660Z,-1.11
2022-11-19T11:03:23.011Z,-1.31
2022-11-19T11:06:05.604Z,-1.05
2022-11-19T11:08:34.512Z,-1.15
2022-11-19T11:11:05.666Z,-1.24
2022-11-19T11:13:57.337Z,-1.13
2022-11-19T11:16:47.031Z,-1.05
2022-11-19T11:19:20.206Z,-1.55
2022-11-19T11:21:53.115Z,-1.19
2022-11-19T11:24:22.143Z,-1.26
2022-11-19T11:27:24.545Z,-1.15
2022-11-19T11:30:15.109Z,-1.17
2022-11-19T11:32:43.566Z,-1.66
2022-11-19T11:35:34.751Z,-1.18
2022-11-19T11:38:03.994Z,-1.20
2022-11-19T11:40:32.408Z,-1.09
2022-11-19T11:43:00.152Z,-1.07
2022-11-19T11:45:33.193Z,-1.33
2022-11-19T11:48:19.841Z,-1.14
2022-11-19T11:50:48.195Z,-1.42
2022-11-19T11:53:28.827Z,-1.15
2022-11-19T11:56:03.268Z,-1.26
2022-11-19T11:58:35.120Z,-1.17
2022-11-19T12:01:20.158Z,-1.16
2022-11-19T12:03:59.606Z,-1.22
2022-11-19T12:06:40.423Z,-1.52
2022-11-19T12:09:29.991Z,-1.33
2022-11-19T12:12:09.111Z,-1.05
2022-11-19T12:14:37.303Z,-1.54
2022-11-19T12:17:35.838Z,-1.36
2022-11-19T12:20:04.151Z,-1.09
2022-11-19T12:22:57.090Z,-1.02
2022-11-19T12:25:46.771Z,-1.18
2022-11-19T12:28:39.741Z,-1.09
2022-11-19T12:31:19.664Z,-1.10
2022-11-19T12:33:56.486Z,-1.07
2022-11-19T12:36:39.646Z,-1.13
2022-11-19T12:39:39.726Z,-1.05
2022-11-19T12:42:30.066Z,-1.39
2022-11-19T12:45:17.794Z,-1.30
2022-11-19T12:48:10.665Z,-1.40
2022-11-19T12:51:04.711Z,-1.45
2022-11-19T12:54:07.230Z,-1.17
2022-11-19T12:56:46.985Z,-1.19
2022-11-19T12:59:52.462Z,-1.15
2022-11-19T13:02:41.370Z,-1.08
2022-11-19T13:05:37.712Z,-1.19
2022-11-19T13:08:12.944Z,-1.07
2022-11-19T13:10:45.744Z,-1.19
2022-11-19T13:13:17.677Z,-1.15
2022-11-19T13:16:03.197Z,-1.26
2022-11-19T13:18:34.751Z,-1.27
2022-11-19T13:21:16.908Z,-1.14
2022-11-19T13:23:48.724Z,-1.24
2022-11-19T13:26:32.512Z,-1.18
2022-11-19T13:29:05.968Z,-1.22
2022-11-19T13:31:53.359Z,-1.24
2022-11-19T13:34:38.565Z,-1.17
2022-11-19T13:37:16.173Z,-1.22
2022-11-19T13:39:52.492Z,-1.45
2022-11-19T13:42:41.420Z,-1.28
2022-11-19T13:45:16.049Z,-1.27
2022-11-19T13:48:00.229Z,-1.13
2022-11-19T13:50:39.823Z,-1.19
2022-11-19T13:53:42.630Z,-1.27
2022-11-19T13:56:15.853Z,-1.62
2022-11-19T13:58:49.907Z,-1.40
2022-11-19T14:01:28.441Z,-1.33
2022-11-19T14:04:14.551Z,-1.54
2022-11-19T14:06:50.325Z,-1.14
2022-11-19T14:10:02.997Z,-1.18
2022-11-19T14:13:09.989Z,-1.54
2022-11-19T14:16:18.681Z,-1.30
2022-11-19T14:19:08.624Z,-1.42
2022-11-19T14:21:58.164Z,-1.16
2022-11-19T14:24:44.736Z,-1.28
2022-11-19T14:27:29.719Z,-1.42
2022-11-19T14:30:19.573Z,-1.34
2022-11-19T14:32:52.130Z,-1.41
2022-11-19T14:35:23.921Z,-1.21
2022-11-19T14:38:50.798Z,-1.43
2022-11-19T14:41:30.750Z,-1.29
2022-11-19T14:44:15.644Z,-1.19
2022-11-19T14:46:47.326Z,-1.14
2022-11-19T14:49:32.184Z,-1.23
2022-11-19T14:52:01.136Z,-1.28
2022-11-19T14:54:45.459Z,-1.31
2022-11-19T14:57:28.351Z,-1.22
2022-11-19T15:00:04.706Z,-1.24
2022-11-19T15:02:32.570Z,-1.29
2022-11-19T15:05:19.398Z,-1.28
2022-11-19T15:07:56.223Z,-1.30
2022-11-19T15:10:30.653Z,-1.37
2022-11-19T15:13:26.563Z,-1.17
2022-11-19T15:16:17.825Z,-1.44
2022-11-19T15:18:45.729Z,-1.27
2022-11-19T15:21:29.124Z,-1.20
2022-11-19T15:24:15.772Z,-1.13
2022-11-19T15:26:49.750Z,-1.16
2022-11-19T15:29:23.954Z,-1.12
2022-11-19T15:32:19.676Z,-1.18
2022-11-19T15:35:09.340Z,-1.26
2022-11-19T15:37:49.164Z,-1.34
2022-11-19T15:40:21.656Z,-1.32
2022-11-19T15:43:08.554Z,-1.22
2022-11-19T15:46:01.819Z,-1.26
2022-11-19T15:49:21.458Z,-1.29
2022-11-19T15:52:04.528Z,-1.18
2022-11-19T15:54:34.614Z,-1.29
2022-11-19T15:57:04.486Z,-1.37
2022-11-19T15:59:39.465Z,-1.40
2022-11-19T16:02:19.982Z,-1.22
2022-11-19T16:04:51.190Z,-1.32
2022-11-19T16:10:19.911Z,-1.19
2022-11-19T16:13:13.999Z,-1.39
2022-11-19T16:16:11.801Z,-1.28
2022-11-19T16:18:50.841Z,-1.20
2022-11-19T16:21:27.893Z,-1.46
2022-11-19T16:24:14.982Z,-1.26
2022-11-19T16:26:44.587Z,-1.31
2022-11-19T16:29:22.385Z,-1.56
2022-11-19T16:31:56.998Z,-1.27
2022-11-19T16:34:29.494Z,-1.16
2022-11-19T16:36:58.498Z,-1.24
2022-11-19T16:39:32.016Z,-1.28
2022-11-19T16:42:20.053Z,-1.16
2022-11-19T16:44:50.498Z,-1.26
2022-11-19T16:47:38.124Z,-1.31
2022-11-19T16:50:27.495Z,-1.19
2022-11-19T16:52:56.536Z,-1.28
2022-11-19T16:55:24.547Z,-1.20
2022-11-19T16:58:11.659Z,-1.28
2022-11-19T17:00:41.429Z,-1.28
2022-11-19T17:03:21.371Z,-1.16
2022-11-19T17:05:52.355Z,-1.23
2022-11-19T17:08:24.115Z,-1.42
2022-11-19T17:11:33.989Z,-1.25
2022-11-19T17:14:23.241Z,-1.24
2022-11-19T17:16:53.866Z,-1.32
2022-11-19T17:19:33.644Z,-1.25
2022-11-19T17:22:14.721Z,-1.15
2022-11-19T17:24:44.902Z,-1.23
2022-11-19T17:27:28.005Z,-1.15
2022-11-19T17:30:02.078Z,-1.31
2022-11-19T17:33:01.249Z,-1.43
2022-11-19T17:35:46.408Z,-1.23
2022-11-19T17:38:30.192Z,-1.37
2022-11-19T17:41:01.318Z,-1.19
2022-11-19T17:43:58.819Z,-1.28
2022-11-19T17:46:29.060Z,-1.40
2022-11-19T17:48:57.436Z,-1.14
2022-11-19T17:51:26.718Z,-1.37
2022-11-19T17:53:56.925Z,-1.16
2022-11-19T17:56:29.965Z,-1.22
2022-11-19T17:58:59.953Z,-1.31
2022-11-19T18:01:28.552Z,-1.12
2022-11-19T18:03:56.950Z,-1.52
2022-11-19T18:06:24.955Z,-1.64
2022-11-19T18:08:52.932Z,-1.32
2022-11-19T18:11:26.532Z,-1.18
2022-11-19T18:14:10.848Z,-1.17
2022-11-19T18:16:42.136Z,-1.29
2022-11-19T18:19:13.145Z,-1.32
2022-11-19T18:21:43.412Z,-1.20
2022-11-19T18:24:12.579Z,-1.40
2022-11-19T18:26:40.715Z,-1.46
2022-11-19T18:29:09.196Z,-1.36
2022-11-19T18:31:44.526Z,-1.31
2022-11-19T18:34:23.701Z,-1.46
2022-11-19T18:36:51.915Z,-1.24
2022-11-19T18:39:20.220Z,-1.34
2022-11-19T18:41:49.129Z,-1.17
2022-11-19T18:44:33.849Z,-1.36
2022-11-19T18:47:11.984Z,-1.24
2022-11-19T18:49:40.584Z,-1.11
2022-11-19T18:52:12.279Z,-1.30
2022-11-19T18:54:40.200Z,-1.13
2022-11-19T18:57:10.187Z,-1.15
2022-11-19T18:59:38.687Z,-1.31
2022-11-19T19:02:07.238Z,-1.16
2022-11-19T19:04:35.568Z,-1.21
2022-11-19T19:07:03.306Z,-1.11
2022-11-19T19:09:31.144Z,-1.22
2022-11-19T19:12:17.647Z,-1.24
2022-11-19T19:14:47.648Z,-1.27
2022-11-19T19:17:16.787Z,-1.22
2022-11-19T19:19:45.030Z,-1.06
2022-11-19T19:22:16.099Z,-1.31
2022-11-19T19:24:44.549Z,-1.63
2022-11-19T19:27:12.435Z,-1.03
2022-11-19T19:29:40.300Z,-1.21
2022-11-19T19:32:08.649Z,-1.13
2022-11-19T19:34:37.014Z,-1.13
2022-11-19T19:37:05.612Z,-1.14
2022-11-19T19:39:33.947Z,-1.40
2022-11-19T19:42:01.762Z,-1.26
2022-11-19T19:44:29.620Z,-1.14
2022-11-19T19:47:00.809Z,-1.11
2022-11-19T19:49:28.907Z,-1.17
2022-11-19T19:51:57.168Z,-1.18
2022-11-19T19:54:25.148Z,-1.44
2022-11-19T19:56:53.508Z,-1.46
2022-11-19T19:59:22.845Z,-1.23
2022-11-19T20:01:51.876Z,-1.14
2022-11-19T20:04:20.046Z,-1.15
2022-11-19T20:06:48.486Z,-1.07
2022-11-19T20:09:19.552Z,-1.12
2022-11-19T20:11:47.819Z,-1.03
2022-11-19T20:14:15.721Z,-1.15
2022-11-19T20:16:43.622Z,-1.00
2022-11-19T20:19:15.546Z,-1.08
2022-11-19T20:21:43.740Z,-1.09
2022-11-19T20:24:13.668Z,-1.07
2022-11-19T20:26:42.958Z,-1.22
2022-11-19T20:29:13.477Z,-1.14
2022-11-19T20:31:46.386Z,-1.04
2022-11-19T20:34:15.397Z,-1.04
2022-11-19T20:36:44.365Z,-1.08
2022-11-19T20:39:12.955Z,-1.09
2022-11-19T20:42:02.649Z,-1.05
2022-11-19T20:44:30.792Z,-1.18
2022-11-19T20:47:02.489Z,-1.14
2022-11-19T20:49:35.971Z,-1.00
2022-11-19T20:52:04.320Z,-1.05
2022-11-19T20:54:32.972Z,-0.96
2022-11-19T20:57:01.078Z,-1.07
2022-11-19T20:59:29.653Z,-1.07
2022-11-19T21:01:58.077Z,-1.07
2022-11-19T21:04:28.780Z,-0.95
2022-11-19T21:06:57.165Z,-0.95
2022-11-19T21:09:25.638Z,-1.02
2022-11-19T21:11:53.683Z,-1.03
2022-11-19T21:14:21.969Z,-0.97
2022-11-19T21:16:49.931Z,-0.94
2022-11-19T21:19:18.023Z,-0.95
2022-11-19T21:21:46.320Z,-0.97
2022-11-19T21:24:17.081Z,-1.04
2022-11-19T21:26:45.363Z,-0.96
2022-11-19T21:29:13.637Z,-1.03
2022-11-19T21:31:50.377Z,-1.05
2022-11-19T21:34:20.977Z,-0.94
2022-11-19T21:36:49.866Z,-0.96
2022-11-19T21:39:19.734Z,-0.90
2022-11-19T21:41:48.177Z,-1.08
2022-11-19T21:44:21.122Z,-0.91
2022-11-19T21:46:50.736Z,-0.98
2022-11-19T21:49:22.724Z,-0.94
2022-11-19T21:51:51.212Z,-0.89
2022-11-19T21:54:19.279Z,-1.03
2022-11-19T21:56:47.657Z,-0.91
2022-11-19T21:59:15.825Z,-0.98
2022-11-19T22:01:43.627Z,-1.00
2022-11-19T22:04:15.761Z,-0.91
2022-11-19T22:06:43.579Z,-0.92
2022-11-19T22:09:11.754Z,-1.02
2022-11-19T22:11:39.415Z,-0.86
2022-11-19T22:14:09.006Z,-0.97
2022-11-19T22:16:39.993Z,-0.97
2022-11-19T22:19:14.184Z,-0.87
2022-11-19T22:21:42.465Z,-1.02
2022-11-19T22:26:58.238Z,-0.89
2022-11-19T22:29:26.047Z,-0.85
2022-11-19T22:31:53.831Z,-0.95
2022-11-19T22:34:21.934Z,-0.94
2022-11-19T22:36:50.104Z,-0.94
2022-11-19T22:39:18.841Z,-0.88
2022-11-19T22:41:47.200Z,-0.93
2022-11-19T22:44:15.047Z,-0.85
2022-11-19T22:46:42.933Z,-1.00
2022-11-19T22:49:11.362Z,-1.04
2022-11-19T22:51:39.120Z,-0.96
2022-11-19T22:54:16.751Z,-0.90
2022-11-19T22:56:44.857Z,-0.88
2022-11-19T22:59:12.941Z,-0.95
2022-11-19T23:01:40.760Z,-1.07
2022-11-19T23:04:15.275Z,-0.98
2022-11-19T23:06:43.047Z,-0.83
2022-11-19T23:09:11.252Z,-0.78
2022-11-19T23:11:57.594Z,-0.84
2022-11-19T23:14:25.854Z,-0.80
2022-11-19T23:16:53.637Z,-0.83
2022-11-19T23:19:21.825Z,-0.96
2022-11-19T23:21:50.237Z,-0.93
2022-11-19T23:24:17.943Z,-0.88
2022-11-19T23:26:45.739Z,-1.00
2022-11-19T23:29:16.948Z,-0.97
2022-11-19T23:31:44.698Z,-0.92
2022-11-19T23:34:12.506Z,-0.80
2022-11-19T23:36:41.969Z,-0.77
2022-11-19T23:39:15.238Z,-0.95
2022-11-19T23:41:44.360Z,-0.74
2022-11-19T23:44:12.489Z,-1.02
2022-11-19T23:46:40.673Z,-1.24
2022-11-19T23:49:08.964Z,-0.92
2022-11-19T23:51:40.313Z,-1.12
2022-11-19T23:54:08.668Z,-1.10
2022-11-19T23:56:36.762Z,-1.36
2022-11-19T23:59:05.597Z,-1.56
